This is the latest recevied weather packets stored in our database for station/object EA1GCN-10. If no packets are shown the sender has not sent any weather packets the latest 10 day(s).
| Time | Temp. | Humidity | Pressure | Rain* | Wind** | Luminosity | Snow |
|---|---|---|---|---|---|---|---|
| 1777641085 | 25.56° C | 48% | 1019 hPa | - | - | - | - |
| 1777639285 | 25.56° C | 49% | 1018 hPa | - | - | - | - |
| 1777637485 | 25° C | 50% | 1019 hPa | - | - | - | - |
| 1777635685 | 23.33° C | 55% | 1019 hPa | - | - | - | - |
| 1777633885 | 22.22° C | 58% | 1019 hPa | - | - | - | - |
| 1777632085 | 22.78° C | 55% | 1019 hPa | - | - | - | - |
| 1777630285 | 21.67° C | 57% | 1019 hPa | - | - | - | - |
| 1777628485 | 22.22° C | 54% | 1019 hPa | - | - | - | - |
| 1777626685 | 21.11° C | 58% | 1020 hPa | - | - | - | - |
| 1777624884 | 20.56° C | 59% | 1019 hPa | - | - | - | - |
| 1777623084 | 20.56° C | 60% | 1019 hPa | - | - | - | - |
| 1777621284 | 20° C | 59% | 1019 hPa | - | - | - | - |
| 1777619484 | 20.56° C | 63% | 1019 hPa | - | - | - | - |
| 1777617684 | 20° C | 62% | 1019 hPa | - | - | - | - |
| 1777615884 | 20.56° C | 62% | 1019 hPa | - | - | - | - |
| 1777614084 | 20.56° C | 62% | 1019 hPa | - | - | - | - |
| 1777612284 | 20.56° C | 62% | 1019 hPa | - | - | - | - |
| 1777610484 | 20.56° C | 62% | 1019 hPa | - | - | - | - |
| 1777608683 | 20.56° C | 62% | 1019 hPa | - | - | - | - |
| 1777606883 | 20.56° C | 62% | 1019 hPa | - | - | - | - |
| 1777605083 | 20.56° C | 62% | 1019 hPa | - | - | - | - |
| 1777603283 | 21.11° C | 61% | 1019 hPa | - | - | - | - |
| 1777601483 | 21.11° C | 61% | 1019 hPa | - | - | - | - |
| 1777599683 | 21.11° C | 61% | 1019 hPa | - | - | - | - |
| 1777597883 | 21.11° C | 60% | 1019 hPa | - | - | - | - |
* Rain since midnight (hover to see other rain measurements)
** Current wind speed in m/s (hover to see current wind gust speed)